sensor_id;sensor_type;location;lat;lon;timestamp;P1;durP1;ratioP1;P2;durP2;ratioP2
2522;SDS011;1272;53.332;9.860;2023-01-19T00:00:14;14.93;;;10.87;;
2522;SDS011;1272;53.332;9.860;2023-01-19T00:02:41;16.10;;;11.77;;
2522;SDS011;1272;53.332;9.860;2023-01-19T00:05:10;15.87;;;10.93;;
2522;SDS011;1272;53.332;9.860;2023-01-19T00:07:35;17.83;;;13.13;;
2522;SDS011;1272;53.332;9.860;2023-01-19T00:10:01;15.33;;;11.23;;
2522;SDS011;1272;53.332;9.860;2023-01-19T00:12:27;19.67;;;12.03;;
2522;SDS011;1272;53.332;9.860;2023-01-19T00:14:52;15.30;;;10.80;;
2522;SDS011;1272;53.332;9.860;2023-01-19T00:17:18;14.37;;;10.50;;
2522;SDS011;1272;53.332;9.860;2023-01-19T00:19:44;16.30;;;11.73;;
2522;SDS011;1272;53.332;9.860;2023-01-19T00:22:09;15.63;;;12.47;;
2522;SDS011;1272;53.332;9.860;2023-01-19T00:24:35;15.37;;;11.67;;
2522;SDS011;1272;53.332;9.860;2023-01-19T00:27:00;16.77;;;12.00;;
2522;SDS011;1272;53.332;9.860;2023-01-19T00:29:28;18.47;;;11.73;;
2522;SDS011;1272;53.332;9.860;2023-01-19T00:32:01;14.10;;;10.53;;
2522;SDS011;1272;53.332;9.860;2023-01-19T00:34:28;17.03;;;11.70;;
2522;SDS011;1272;53.332;9.860;2023-01-19T00:37:10;21.80;;;12.10;;
2522;SDS011;1272;53.332;9.860;2023-01-19T00:39:35;17.80;;;12.67;;
2522;SDS011;1272;53.332;9.860;2023-01-19T00:42:01;14.53;;;11.63;;
2522;SDS011;1272;53.332;9.860;2023-01-19T00:44:46;17.10;;;12.00;;
2522;SDS011;1272;53.332;9.860;2023-01-19T00:47:11;13.10;;;9.83;;
2522;SDS011;1272;53.332;9.860;2023-01-19T00:49:37;16.40;;;12.10;;
2522;SDS011;1272;53.332;9.860;2023-01-19T00:52:03;18.73;;;11.67;;
2522;SDS011;1272;53.332;9.860;2023-01-19T00:54:29;18.60;;;12.70;;
2522;SDS011;1272;53.332;9.860;2023-01-19T00:56:54;17.00;;;11.87;;
2522;SDS011;1272;53.332;9.860;2023-01-19T00:59:20;17.40;;;11.83;;
2522;SDS011;1272;53.332;9.860;2023-01-19T01:01:46;16.40;;;11.07;;
2522;SDS011;1272;53.332;9.860;2023-01-19T01:04:11;16.47;;;11.73;;
2522;SDS011;1272;53.332;9.860;2023-01-19T01:06:38;12.90;;;10.93;;
2522;SDS011;1272;53.332;9.860;2023-01-19T01:09:04;21.23;;;12.10;;
2522;SDS011;1272;53.332;9.860;2023-01-19T01:11:36;13.53;;;11.50;;
2522;SDS011;1272;53.332;9.860;2023-01-19T01:14:05;16.87;;;12.10;;
2522;SDS011;1272;53.332;9.860;2023-01-19T01:16:32;16.20;;;11.60;;
2522;SDS011;1272;53.332;9.860;2023-01-19T01:18:57;14.70;;;11.13;;
2522;SDS011;1272;53.332;9.860;2023-01-19T01:21:23;18.20;;;12.60;;
2522;SDS011;1272;53.332;9.860;2023-01-19T01:23:49;12.80;;;11.20;;
2522;SDS011;1272;53.332;9.860;2023-01-19T01:26:14;20.10;;;12.30;;
2522;SDS011;1272;53.332;9.860;2023-01-19T01:28:40;16.97;;;10.73;;
2522;SDS011;1272;53.332;9.860;2023-01-19T01:31:06;13.17;;;10.57;;
2522;SDS011;1272;53.332;9.860;2023-01-19T01:33:31;12.50;;;11.17;;
2522;SDS011;1272;53.332;9.860;2023-01-19T01:35:57;16.83;;;12.00;;
2522;SDS011;1272;53.332;9.860;2023-01-19T01:38:23;14.67;;;11.73;;
2522;SDS011;1272;53.332;9.860;2023-01-19T01:40:48;14.93;;;11.03;;
2522;SDS011;1272;53.332;9.860;2023-01-19T01:43:15;16.57;;;12.27;;
2522;SDS011;1272;53.332;9.860;2023-01-19T01:45:42;17.50;;;11.17;;
2522;SDS011;1272;53.332;9.860;2023-01-19T01:50:58;11.23;;;9.77;;
2522;SDS011;1272;53.332;9.860;2023-01-19T01:53:46;19.70;;;11.37;;
2522;SDS011;1272;53.332;9.860;2023-01-19T01:56:18;15.00;;;11.57;;
2522;SDS011;1272;53.332;9.860;2023-01-19T01:58:46;19.57;;;12.57;;
2522;SDS011;1272;53.332;9.860;2023-01-19T02:01:12;18.73;;;11.87;;
2522;SDS011;1272;53.332;9.860;2023-01-19T02:03:56;15.63;;;11.20;;
2522;SDS011;1272;53.332;9.860;2023-01-19T02:06:23;13.30;;;10.33;;
2522;SDS011;1272;53.332;9.860;2023-01-19T02:08:53;16.53;;;12.40;;
2522;SDS011;1272;53.332;9.860;2023-01-19T02:11:48;17.40;;;10.90;;
2522;SDS011;1272;53.332;9.860;2023-01-19T02:14:33;14.03;;;11.23;;
2522;SDS011;1272;53.332;9.860;2023-01-19T02:17:02;15.30;;;10.90;;
2522;SDS011;1272;53.332;9.860;2023-01-19T02:19:30;13.87;;;12.10;;
2522;SDS011;1272;53.332;9.860;2023-01-19T02:22:03;17.13;;;11.90;;
2522;SDS011;1272;53.332;9.860;2023-01-19T02:24:30;14.37;;;11.30;;
2522;SDS011;1272;53.332;9.860;2023-01-19T02:26:57;17.30;;;12.40;;
2522;SDS011;1272;53.332;9.860;2023-01-19T02:29:24;13.23;;;11.60;;
2522;SDS011;1272;53.332;9.860;2023-01-19T02:31:52;14.53;;;12.27;;
2522;SDS011;1272;53.332;9.860;2023-01-19T02:34:19;16.33;;;11.70;;
2522;SDS011;1272;53.332;9.860;2023-01-19T02:37:00;15.33;;;10.83;;
2522;SDS011;1272;53.332;9.860;2023-01-19T02:42:00;21.90;;;12.97;;
2522;SDS011;1272;53.332;9.860;2023-01-19T02:44:28;17.77;;;12.93;;
2522;SDS011;1272;53.332;9.860;2023-01-19T02:46:55;14.90;;;11.20;;
2522;SDS011;1272;53.332;9.860;2023-01-19T02:49:21;13.93;;;12.50;;
2522;SDS011;1272;53.332;9.860;2023-01-19T02:51:47;16.20;;;12.67;;
2522;SDS011;1272;53.332;9.860;2023-01-19T02:57:24;15.33;;;11.50;;
2522;SDS011;1272;53.332;9.860;2023-01-19T03:02:41;16.27;;;11.73;;
2522;SDS011;1272;53.332;9.860;2023-01-19T03:08:13;15.30;;;11.57;;
2522;SDS011;1272;53.332;9.860;2023-01-19T03:13:33;16.73;;;11.73;;
2522;SDS011;1272;53.332;9.860;2023-01-19T03:18:57;15.77;;;12.40;;
2522;SDS011;1272;53.332;9.860;2023-01-19T03:21:32;16.20;;;12.40;;
2522;SDS011;1272;53.332;9.860;2023-01-19T03:24:00;21.53;;;13.70;;
2522;SDS011;1272;53.332;9.860;2023-01-19T03:26:28;19.83;;;13.97;;
2522;SDS011;1272;53.332;9.860;2023-01-19T03:28:59;18.07;;;13.60;;
2522;SDS011;1272;53.332;9.860;2023-01-19T03:31:27;19.37;;;12.60;;
2522;SDS011;1272;53.332;9.860;2023-01-19T03:33:57;17.63;;;13.50;;
2522;SDS011;1272;53.332;9.860;2023-01-19T03:36:28;15.43;;;12.77;;
2522;SDS011;1272;53.332;9.860;2023-01-19T03:38:58;18.30;;;13.77;;
2522;SDS011;1272;53.332;9.860;2023-01-19T03:41:26;16.80;;;12.90;;
2522;SDS011;1272;53.332;9.860;2023-01-19T03:43:54;15.97;;;12.47;;
2522;SDS011;1272;53.332;9.860;2023-01-19T03:46:21;17.00;;;12.93;;
2522;SDS011;1272;53.332;9.860;2023-01-19T03:48:49;18.27;;;13.20;;
2522;SDS011;1272;53.332;9.860;2023-01-19T03:51:16;19.70;;;12.20;;
2522;SDS011;1272;53.332;9.860;2023-01-19T03:53:43;21.57;;;14.20;;
2522;SDS011;1272;53.332;9.860;2023-01-19T03:56:19;18.03;;;12.93;;
2522;SDS011;1272;53.332;9.860;2023-01-19T03:58:47;18.17;;;13.43;;
2522;SDS011;1272;53.332;9.860;2023-01-19T04:01:13;20.87;;;14.10;;
2522;SDS011;1272;53.332;9.860;2023-01-19T04:03:40;16.60;;;13.50;;
2522;SDS011;1272;53.332;9.860;2023-01-19T04:06:07;23.70;;;14.90;;
2522;SDS011;1272;53.332;9.860;2023-01-19T04:08:33;21.43;;;14.30;;
2522;SDS011;1272;53.332;9.860;2023-01-19T04:10:59;17.10;;;14.23;;
2522;SDS011;1272;53.332;9.860;2023-01-19T04:13:25;17.73;;;13.83;;
2522;SDS011;1272;53.332;9.860;2023-01-19T04:15:52;17.70;;;12.53;;
2522;SDS011;1272;53.332;9.860;2023-01-19T04:18:18;20.30;;;14.77;;
2522;SDS011;1272;53.332;9.860;2023-01-19T04:20:44;18.60;;;14.40;;
2522;SDS011;1272;53.332;9.860;2023-01-19T04:23:10;20.63;;;15.30;;
2522;SDS011;1272;53.332;9.860;2023-01-19T04:25:35;20.60;;;14.17;;
2522;SDS011;1272;53.332;9.860;2023-01-19T04:28:01;19.40;;;14.43;;
2522;SDS011;1272;53.332;9.860;2023-01-19T04:30:27;25.30;;;15.03;;
2522;SDS011;1272;53.332;9.860;2023-01-19T04:32:52;20.47;;;14.97;;
2522;SDS011;1272;53.332;9.860;2023-01-19T04:35:19;21.20;;;14.80;;
2522;SDS011;1272;53.332;9.860;2023-01-19T04:37:46;21.43;;;15.07;;
2522;SDS011;1272;53.332;9.860;2023-01-19T04:40:12;20.07;;;15.60;;
2522;SDS011;1272;53.332;9.860;2023-01-19T04:42:38;20.23;;;16.13;;
2522;SDS011;1272;53.332;9.860;2023-01-19T04:45:07;20.47;;;14.53;;
2522;SDS011;1272;53.332;9.860;2023-01-19T04:47:33;21.57;;;15.20;;
2522;SDS011;1272;53.332;9.860;2023-01-19T04:49:59;20.80;;;15.10;;
2522;SDS011;1272;53.332;9.860;2023-01-19T04:52:29;19.20;;;14.30;;
2522;SDS011;1272;53.332;9.860;2023-01-19T04:54:59;19.30;;;13.90;;
2522;SDS011;1272;53.332;9.860;2023-01-19T04:57:28;21.77;;;15.83;;
2522;SDS011;1272;53.332;9.860;2023-01-19T04:59:55;27.97;;;17.00;;
2522;SDS011;1272;53.332;9.860;2023-01-19T05:02:21;22.17;;;15.87;;
2522;SDS011;1272;53.332;9.860;2023-01-19T05:04:48;26.83;;;17.00;;
2522;SDS011;1272;53.332;9.860;2023-01-19T05:07:16;20.43;;;16.37;;
2522;SDS011;1272;53.332;9.860;2023-01-19T05:09:42;20.40;;;15.30;;
2522;SDS011;1272;53.332;9.860;2023-01-19T05:12:08;22.23;;;16.30;;
2522;SDS011;1272;53.332;9.860;2023-01-19T05:14:33;25.40;;;16.90;;
2522;SDS011;1272;53.332;9.860;2023-01-19T05:16:59;24.33;;;17.30;;
2522;SDS011;1272;53.332;9.860;2023-01-19T05:19:27;27.47;;;16.93;;
2522;SDS011;1272;53.332;9.860;2023-01-19T05:21:52;22.80;;;16.43;;
2522;SDS011;1272;53.332;9.860;2023-01-19T05:24:18;24.80;;;16.10;;
2522;SDS011;1272;53.332;9.860;2023-01-19T05:26:44;22.50;;;15.93;;
2522;SDS011;1272;53.332;9.860;2023-01-19T05:29:10;26.30;;;17.90;;
2522;SDS011;1272;53.332;9.860;2023-01-19T05:31:35;23.70;;;17.10;;
2522;SDS011;1272;53.332;9.860;2023-01-19T05:34:01;23.43;;;17.70;;
2522;SDS011;1272;53.332;9.860;2023-01-19T05:36:28;29.10;;;18.93;;
2522;SDS011;1272;53.332;9.860;2023-01-19T05:38:53;21.93;;;17.07;;
2522;SDS011;1272;53.332;9.860;2023-01-19T05:41:19;23.97;;;17.27;;
2522;SDS011;1272;53.332;9.860;2023-01-19T05:43:45;25.93;;;18.10;;
2522;SDS011;1272;53.332;9.860;2023-01-19T05:46:10;24.57;;;17.37;;
2522;SDS011;1272;53.332;9.860;2023-01-19T05:48:36;21.73;;;16.53;;
2522;SDS011;1272;53.332;9.860;2023-01-19T05:51:03;24.27;;;17.60;;
2522;SDS011;1272;53.332;9.860;2023-01-19T05:53:29;25.27;;;17.97;;
2522;SDS011;1272;53.332;9.860;2023-01-19T05:56:02;25.90;;;19.23;;
2522;SDS011;1272;53.332;9.860;2023-01-19T05:58:29;23.83;;;18.07;;
2522;SDS011;1272;53.332;9.860;2023-01-19T06:00:56;26.47;;;19.90;;
2522;SDS011;1272;53.332;9.860;2023-01-19T06:03:25;36.17;;;19.10;;
2522;SDS011;1272;53.332;9.860;2023-01-19T06:05:51;27.80;;;19.30;;
2522;SDS011;1272;53.332;9.860;2023-01-19T06:08:21;28.07;;;20.60;;
2522;SDS011;1272;53.332;9.860;2023-01-19T06:10:46;27.13;;;19.00;;
2522;SDS011;1272;53.332;9.860;2023-01-19T06:13:12;27.60;;;19.10;;
2522;SDS011;1272;53.332;9.860;2023-01-19T06:15:38;31.30;;;21.17;;
2522;SDS011;1272;53.332;9.860;2023-01-19T06:18:03;26.77;;;19.60;;
2522;SDS011;1272;53.332;9.860;2023-01-19T06:20:29;31.60;;;20.83;;
2522;SDS011;1272;53.332;9.860;2023-01-19T06:22:55;30.57;;;20.10;;
2522;SDS011;1272;53.332;9.860;2023-01-19T06:25:22;26.03;;;18.77;;
2522;SDS011;1272;53.332;9.860;2023-01-19T06:27:47;28.47;;;20.10;;
2522;SDS011;1272;53.332;9.860;2023-01-19T06:30:13;28.17;;;19.13;;
2522;SDS011;1272;53.332;9.860;2023-01-19T06:32:39;25.50;;;18.80;;
2522;SDS011;1272;53.332;9.860;2023-01-19T06:35:05;28.67;;;19.23;;
2522;SDS011;1272;53.332;9.860;2023-01-19T06:37:32;28.63;;;21.77;;
2522;SDS011;1272;53.332;9.860;2023-01-19T06:39:57;28.63;;;20.77;;
2522;SDS011;1272;53.332;9.860;2023-01-19T06:42:23;26.07;;;19.03;;
2522;SDS011;1272;53.332;9.860;2023-01-19T06:44:49;28.67;;;20.23;;
2522;SDS011;1272;53.332;9.860;2023-01-19T06:47:14;29.37;;;20.93;;
2522;SDS011;1272;53.332;9.860;2023-01-19T06:49:40;32.37;;;21.87;;
2522;SDS011;1272;53.332;9.860;2023-01-19T06:52:10;29.97;;;21.50;;
2522;SDS011;1272;53.332;9.860;2023-01-19T06:54:38;32.97;;;23.07;;
2522;SDS011;1272;53.332;9.860;2023-01-19T06:57:04;30.23;;;21.10;;
2522;SDS011;1272;53.332;9.860;2023-01-19T06:59:29;31.37;;;22.50;;
2522;SDS011;1272;53.332;9.860;2023-01-19T07:01:55;36.07;;;23.40;;
2522;SDS011;1272;53.332;9.860;2023-01-19T07:04:21;32.10;;;20.80;;
2522;SDS011;1272;53.332;9.860;2023-01-19T07:06:47;36.33;;;23.47;;
2522;SDS011;1272;53.332;9.860;2023-01-19T07:09:12;38.93;;;23.20;;
2522;SDS011;1272;53.332;9.860;2023-01-19T07:11:38;32.47;;;22.10;;
2522;SDS011;1272;53.332;9.860;2023-01-19T07:14:04;30.83;;;20.73;;
2522;SDS011;1272;53.332;9.860;2023-01-19T07:16:30;42.20;;;23.40;;
2522;SDS011;1272;53.332;9.860;2023-01-19T07:18:55;33.50;;;23.10;;
2522;SDS011;1272;53.332;9.860;2023-01-19T07:21:21;34.13;;;23.00;;
2522;SDS011;1272;53.332;9.860;2023-01-19T07:23:47;34.43;;;23.23;;
2522;SDS011;1272;53.332;9.860;2023-01-19T07:26:15;34.73;;;22.20;;
2522;SDS011;1272;53.332;9.860;2023-01-19T07:28:43;30.07;;;21.97;;
2522;SDS011;1272;53.332;9.860;2023-01-19T07:31:09;34.27;;;23.10;;
2522;SDS011;1272;53.332;9.860;2023-01-19T07:33:35;37.93;;;24.97;;
2522;SDS011;1272;53.332;9.860;2023-01-19T07:36:01;31.00;;;21.13;;
2522;SDS011;1272;53.332;9.860;2023-01-19T07:38:26;33.10;;;22.23;;
2522;SDS011;1272;53.332;9.860;2023-01-19T07:40:58;36.47;;;23.17;;
2522;SDS011;1272;53.332;9.860;2023-01-19T07:43:25;37.03;;;23.80;;
2522;SDS011;1272;53.332;9.860;2023-01-19T07:45:50;33.43;;;21.40;;
2522;SDS011;1272;53.332;9.860;2023-01-19T07:48:19;29.47;;;21.60;;
2522;SDS011;1272;53.332;9.860;2023-01-19T07:50:44;35.70;;;22.00;;
2522;SDS011;1272;53.332;9.860;2023-01-19T07:53:10;37.37;;;23.03;;
2522;SDS011;1272;53.332;9.860;2023-01-19T07:55:36;33.97;;;21.80;;
2522;SDS011;1272;53.332;9.860;2023-01-19T07:58:02;31.73;;;21.60;;
2522;SDS011;1272;53.332;9.860;2023-01-19T08:00:31;35.03;;;21.87;;
2522;SDS011;1272;53.332;9.860;2023-01-19T08:02:58;36.57;;;21.00;;
2522;SDS011;1272;53.332;9.860;2023-01-19T08:05:25;37.10;;;22.77;;
2522;SDS011;1272;53.332;9.860;2023-01-19T08:07:54;34.40;;;23.37;;
2522;SDS011;1272;53.332;9.860;2023-01-19T08:10:24;31.50;;;21.07;;
2522;SDS011;1272;53.332;9.860;2023-01-19T08:12:54;29.60;;;19.97;;
2522;SDS011;1272;53.332;9.860;2023-01-19T08:15:20;27.43;;;19.40;;
2522;SDS011;1272;53.332;9.860;2023-01-19T08:18:09;32.03;;;22.50;;
2522;SDS011;1272;53.332;9.860;2023-01-19T08:20:35;35.90;;;23.47;;
2522;SDS011;1272;53.332;9.860;2023-01-19T08:23:01;32.23;;;23.83;;
2522;SDS011;1272;53.332;9.860;2023-01-19T08:25:32;34.70;;;22.20;;
2522;SDS011;1272;53.332;9.860;2023-01-19T08:28:09;37.50;;;23.80;;
2522;SDS011;1272;53.332;9.860;2023-01-19T08:30:39;34.83;;;21.60;;
2522;SDS011;1272;53.332;9.860;2023-01-19T08:33:07;31.40;;;22.60;;
2522;SDS011;1272;53.332;9.860;2023-01-19T08:35:34;31.70;;;22.63;;
2522;SDS011;1272;53.332;9.860;2023-01-19T08:38:02;29.17;;;20.70;;
2522;SDS011;1272;53.332;9.860;2023-01-19T08:40:29;30.13;;;20.77;;
2522;SDS011;1272;53.332;9.860;2023-01-19T08:42:59;33.00;;;22.17;;
2522;SDS011;1272;53.332;9.860;2023-01-19T08:45:27;30.13;;;21.40;;
2522;SDS011;1272;53.332;9.860;2023-01-19T08:47:55;30.77;;;21.30;;
2522;SDS011;1272;53.332;9.860;2023-01-19T08:50:23;33.43;;;22.47;;
2522;SDS011;1272;53.332;9.860;2023-01-19T08:52:49;33.07;;;21.87;;
2522;SDS011;1272;53.332;9.860;2023-01-19T08:55:15;27.53;;;19.30;;
2522;SDS011;1272;53.332;9.860;2023-01-19T08:57:41;33.13;;;21.20;;
2522;SDS011;1272;53.332;9.860;2023-01-19T09:00:07;27.10;;;19.37;;
2522;SDS011;1272;53.332;9.860;2023-01-19T09:02:35;29.93;;;20.20;;
2522;SDS011;1272;53.332;9.860;2023-01-19T09:05:01;29.53;;;20.23;;
2522;SDS011;1272;53.332;9.860;2023-01-19T09:07:31;28.37;;;20.23;;
2522;SDS011;1272;53.332;9.860;2023-01-19T09:09:57;30.17;;;21.70;;
2522;SDS011;1272;53.332;9.860;2023-01-19T09:12:22;34.93;;;21.70;;
2522;SDS011;1272;53.332;9.860;2023-01-19T09:14:48;31.53;;;20.30;;
2522;SDS011;1272;53.332;9.860;2023-01-19T09:17:14;30.77;;;20.50;;
2522;SDS011;1272;53.332;9.860;2023-01-19T09:19:42;26.73;;;17.80;;
2522;SDS011;1272;53.332;9.860;2023-01-19T09:22:07;29.40;;;19.70;;
2522;SDS011;1272;53.332;9.860;2023-01-19T09:24:33;30.47;;;20.27;;
2522;SDS011;1272;53.332;9.860;2023-01-19T09:27:00;31.73;;;20.70;;
2522;SDS011;1272;53.332;9.860;2023-01-19T09:29:29;28.37;;;20.43;;
2522;SDS011;1272;53.332;9.860;2023-01-19T09:31:54;24.50;;;17.20;;
2522;SDS011;1272;53.332;9.860;2023-01-19T09:34:21;29.60;;;18.83;;
2522;SDS011;1272;53.332;9.860;2023-01-19T09:36:49;24.10;;;17.90;;
2522;SDS011;1272;53.332;9.860;2023-01-19T09:39:18;28.73;;;19.10;;
2522;SDS011;1272;53.332;9.860;2023-01-19T09:42:06;23.40;;;18.27;;
2522;SDS011;1272;53.332;9.860;2023-01-19T09:44:40;28.20;;;19.40;;
2522;SDS011;1272;53.332;9.860;2023-01-19T09:47:15;30.93;;;19.87;;
2522;SDS011;1272;53.332;9.860;2023-01-19T09:49:51;26.23;;;17.90;;
2522;SDS011;1272;53.332;9.860;2023-01-19T09:52:30;28.27;;;18.67;;
2522;SDS011;1272;53.332;9.860;2023-01-19T09:55:00;26.27;;;18.67;;
2522;SDS011;1272;53.332;9.860;2023-01-19T09:57:26;27.90;;;19.40;;
2522;SDS011;1272;53.332;9.860;2023-01-19T09:59:54;25.30;;;17.60;;
2522;SDS011;1272;53.332;9.860;2023-01-19T10:05:01;22.63;;;16.83;;
2522;SDS011;1272;53.332;9.860;2023-01-19T10:10:26;27.27;;;17.10;;
2522;SDS011;1272;53.332;9.860;2023-01-19T10:12:57;26.57;;;17.73;;
2522;SDS011;1272;53.332;9.860;2023-01-19T10:23:40;23.77;;;18.30;;
2522;SDS011;1272;53.332;9.860;2023-01-19T10:29:04;24.67;;;16.47;;
2522;SDS011;1272;53.332;9.860;2023-01-19T10:31:33;26.80;;;18.40;;
2522;SDS011;1272;53.332;9.860;2023-01-19T10:34:01;28.33;;;18.00;;
2522;SDS011;1272;53.332;9.860;2023-01-19T10:36:30;26.53;;;16.93;;
2522;SDS011;1272;53.332;9.860;2023-01-19T10:38:59;20.80;;;15.70;;
2522;SDS011;1272;53.332;9.860;2023-01-19T10:41:27;23.90;;;16.83;;
2522;SDS011;1272;53.332;9.860;2023-01-19T10:44:03;23.30;;;16.83;;
2522;SDS011;1272;53.332;9.860;2023-01-19T10:46:31;25.00;;;17.37;;
2522;SDS011;1272;53.332;9.860;2023-01-19T10:49:17;24.63;;;17.53;;
2522;SDS011;1272;53.332;9.860;2023-01-19T10:52:04;27.20;;;16.50;;
2522;SDS011;1272;53.332;9.860;2023-01-19T10:54:35;22.97;;;17.30;;
2522;SDS011;1272;53.332;9.860;2023-01-19T10:57:03;25.57;;;16.87;;
2522;SDS011;1272;53.332;9.860;2023-01-19T11:04:41;24.47;;;16.37;;
2522;SDS011;1272;53.332;9.860;2023-01-19T11:07:13;24.43;;;16.60;;
2522;SDS011;1272;53.332;9.860;2023-01-19T11:09:47;22.73;;;16.67;;
2522;SDS011;1272;53.332;9.860;2023-01-19T11:12:15;25.50;;;18.30;;
2522;SDS011;1272;53.332;9.860;2023-01-19T11:14:42;23.60;;;16.00;;
2522;SDS011;1272;53.332;9.860;2023-01-19T11:17:14;25.60;;;17.17;;
2522;SDS011;1272;53.332;9.860;2023-01-19T11:19:51;24.00;;;16.80;;
2522;SDS011;1272;53.332;9.860;2023-01-19T11:22:24;21.93;;;16.80;;
2522;SDS011;1272;53.332;9.860;2023-01-19T11:24:55;22.97;;;17.20;;
2522;SDS011;1272;53.332;9.860;2023-01-19T11:27:22;28.43;;;19.77;;
2522;SDS011;1272;53.332;9.860;2023-01-19T11:29:49;24.37;;;17.20;;
2522;SDS011;1272;53.332;9.860;2023-01-19T11:32:51;28.47;;;18.70;;
2522;SDS011;1272;53.332;9.860;2023-01-19T11:35:34;27.90;;;17.87;;
2522;SDS011;1272;53.332;9.860;2023-01-19T11:38:15;22.57;;;17.50;;
2522;SDS011;1272;53.332;9.860;2023-01-19T11:40:54;26.40;;;18.00;;
2522;SDS011;1272;53.332;9.860;2023-01-19T11:43:22;21.53;;;15.80;;
2522;SDS011;1272;53.332;9.860;2023-01-19T11:45:51;28.00;;;18.10;;
2522;SDS011;1272;53.332;9.860;2023-01-19T11:51:27;26.20;;;18.50;;
2522;SDS011;1272;53.332;9.860;2023-01-19T11:54:17;20.20;;;15.70;;
2522;SDS011;1272;53.332;9.860;2023-01-19T11:56:47;28.77;;;16.70;;
2522;SDS011;1272;53.332;9.860;2023-01-19T11:59:16;24.30;;;16.90;;
2522;SDS011;1272;53.332;9.860;2023-01-19T12:01:46;26.50;;;16.90;;
2522;SDS011;1272;53.332;9.860;2023-01-19T12:04:20;25.20;;;17.70;;
2522;SDS011;1272;53.332;9.860;2023-01-19T12:06:55;24.77;;;16.73;;
2522;SDS011;1272;53.332;9.860;2023-01-19T12:09:24;24.10;;;16.70;;
2522;SDS011;1272;53.332;9.860;2023-01-19T12:17:15;25.90;;;16.57;;
2522;SDS011;1272;53.332;9.860;2023-01-19T12:19:49;22.53;;;17.30;;
2522;SDS011;1272;53.332;9.860;2023-01-19T12:22:20;26.13;;;15.83;;
2522;SDS011;1272;53.332;9.860;2023-01-19T12:24:52;21.37;;;16.13;;
2522;SDS011;1272;53.332;9.860;2023-01-19T12:27:38;24.13;;;15.77;;
2522;SDS011;1272;53.332;9.860;2023-01-19T12:30:25;23.70;;;15.47;;
2522;SDS011;1272;53.332;9.860;2023-01-19T12:46:34;25.53;;;16.33;;
2522;SDS011;1272;53.332;9.860;2023-01-19T12:49:03;23.40;;;16.20;;
2522;SDS011;1272;53.332;9.860;2023-01-19T12:51:31;24.00;;;17.77;;
2522;SDS011;1272;53.332;9.860;2023-01-19T12:53:57;27.20;;;18.47;;
2522;SDS011;1272;53.332;9.860;2023-01-19T12:56:31;24.60;;;17.23;;
2522;SDS011;1272;53.332;9.860;2023-01-19T12:58:59;25.47;;;16.83;;
2522;SDS011;1272;53.332;9.860;2023-01-19T13:01:25;24.03;;;16.40;;
2522;SDS011;1272;53.332;9.860;2023-01-19T13:03:58;26.77;;;17.33;;
2522;SDS011;1272;53.332;9.860;2023-01-19T13:09:31;22.00;;;16.23;;
2522;SDS011;1272;53.332;9.860;2023-01-19T13:14:40;21.30;;;14.67;;
2522;SDS011;1272;53.332;9.860;2023-01-19T13:17:18;20.10;;;14.00;;
2522;SDS011;1272;53.332;9.860;2023-01-19T13:20:00;21.30;;;14.83;;
2522;SDS011;1272;53.332;9.860;2023-01-19T13:25:20;26.43;;;14.40;;
2522;SDS011;1272;53.332;9.860;2023-01-19T13:27:52;19.17;;;14.57;;
2522;SDS011;1272;53.332;9.860;2023-01-19T13:30:18;20.53;;;14.17;;
2522;SDS011;1272;53.332;9.860;2023-01-19T13:32:47;26.10;;;14.50;;
2522;SDS011;1272;53.332;9.860;2023-01-19T13:35:13;19.13;;;14.13;;
2522;SDS011;1272;53.332;9.860;2023-01-19T13:37:42;19.27;;;14.00;;
2522;SDS011;1272;53.332;9.860;2023-01-19T13:40:16;27.43;;;15.83;;
2522;SDS011;1272;53.332;9.860;2023-01-19T13:42:48;22.13;;;13.33;;
2522;SDS011;1272;53.332;9.860;2023-01-19T13:45:36;20.37;;;14.77;;
2522;SDS011;1272;53.332;9.860;2023-01-19T13:48:03;26.03;;;15.37;;
2522;SDS011;1272;53.332;9.860;2023-01-19T13:50:33;20.83;;;15.00;;
2522;SDS011;1272;53.332;9.860;2023-01-19T13:53:01;21.53;;;13.80;;
2522;SDS011;1272;53.332;9.860;2023-01-19T13:55:29;21.93;;;14.00;;
2522;SDS011;1272;53.332;9.860;2023-01-19T13:57:55;21.97;;;13.47;;
2522;SDS011;1272;53.332;9.860;2023-01-19T14:00:25;20.27;;;13.63;;
2522;SDS011;1272;53.332;9.860;2023-01-19T14:05:42;23.63;;;15.20;;
2522;SDS011;1272;53.332;9.860;2023-01-19T14:13:04;17.20;;;12.37;;
2522;SDS011;1272;53.332;9.860;2023-01-19T14:15:36;16.17;;;11.80;;
2522;SDS011;1272;53.332;9.860;2023-01-19T14:18:09;19.23;;;14.87;;
2522;SDS011;1272;53.332;9.860;2023-01-19T14:29:23;18.63;;;12.33;;
2522;SDS011;1272;53.332;9.860;2023-01-19T14:37:43;20.37;;;14.07;;
2522;SDS011;1272;53.332;9.860;2023-01-19T14:40:17;15.40;;;13.17;;
2522;SDS011;1272;53.332;9.860;2023-01-19T14:42:52;19.07;;;12.60;;
2522;SDS011;1272;53.332;9.860;2023-01-19T14:45:24;18.03;;;12.37;;
2522;SDS011;1272;53.332;9.860;2023-01-19T14:47:53;18.53;;;12.33;;
2522;SDS011;1272;53.332;9.860;2023-01-19T14:53:01;18.10;;;11.90;;
2522;SDS011;1272;53.332;9.860;2023-01-19T14:58:00;21.03;;;12.37;;
2522;SDS011;1272;53.332;9.860;2023-01-19T15:00:26;18.03;;;12.87;;
2522;SDS011;1272;53.332;9.860;2023-01-19T15:02:52;16.20;;;11.73;;
2522;SDS011;1272;53.332;9.860;2023-01-19T15:05:17;16.80;;;11.50;;
2522;SDS011;1272;53.332;9.860;2023-01-19T15:07:46;15.93;;;12.10;;
2522;SDS011;1272;53.332;9.860;2023-01-19T15:10:14;14.87;;;10.03;;
2522;SDS011;1272;53.332;9.860;2023-01-19T15:12:44;15.00;;;11.13;;
2522;SDS011;1272;53.332;9.860;2023-01-19T15:15:14;19.40;;;10.57;;
2522;SDS011;1272;53.332;9.860;2023-01-19T15:18:02;17.57;;;10.37;;
2522;SDS011;1272;53.332;9.860;2023-01-19T15:20:29;18.70;;;10.30;;
2522;SDS011;1272;53.332;9.860;2023-01-19T15:22:54;12.23;;;10.10;;
2522;SDS011;1272;53.332;9.860;2023-01-19T15:25:21;13.63;;;10.30;;
2522;SDS011;1272;53.332;9.860;2023-01-19T15:27:50;14.93;;;12.27;;
2522;SDS011;1272;53.332;9.860;2023-01-19T15:30:20;12.80;;;10.10;;
2522;SDS011;1272;53.332;9.860;2023-01-19T15:32:51;15.33;;;11.20;;
2522;SDS011;1272;53.332;9.860;2023-01-19T15:35:18;19.47;;;11.70;;
2522;SDS011;1272;53.332;9.860;2023-01-19T15:37:45;17.73;;;12.83;;
2522;SDS011;1272;53.332;9.860;2023-01-19T15:40:12;16.40;;;11.60;;
2522;SDS011;1272;53.332;9.860;2023-01-19T15:42:39;16.97;;;13.03;;
2522;SDS011;1272;53.332;9.860;2023-01-19T15:47:37;13.93;;;10.10;;
2522;SDS011;1272;53.332;9.860;2023-01-19T15:50:03;13.53;;;9.30;;
2522;SDS011;1272;53.332;9.860;2023-01-19T15:52:28;12.03;;;9.90;;
2522;SDS011;1272;53.332;9.860;2023-01-19T15:54:54;15.87;;;10.13;;
2522;SDS011;1272;53.332;9.860;2023-01-19T15:57:20;11.77;;;9.50;;
2522;SDS011;1272;53.332;9.860;2023-01-19T15:59:45;17.73;;;10.60;;
2522;SDS011;1272;53.332;9.860;2023-01-19T16:02:11;24.10;;;12.80;;
2522;SDS011;1272;53.332;9.860;2023-01-19T16:04:37;24.97;;;11.83;;
2522;SDS011;1272;53.332;9.860;2023-01-19T16:07:03;15.67;;;10.07;;
2522;SDS011;1272;53.332;9.860;2023-01-19T16:09:28;22.20;;;10.23;;
2522;SDS011;1272;53.332;9.860;2023-01-19T16:11:54;19.93;;;9.60;;
2522;SDS011;1272;53.332;9.860;2023-01-19T16:14:21;12.00;;;9.27;;
2522;SDS011;1272;53.332;9.860;2023-01-19T16:16:46;13.53;;;9.13;;
2522;SDS011;1272;53.332;9.860;2023-01-19T16:19:13;16.37;;;10.37;;
2522;SDS011;1272;53.332;9.860;2023-01-19T16:21:42;14.73;;;10.00;;
2522;SDS011;1272;53.332;9.860;2023-01-19T16:24:08;12.80;;;8.80;;
2522;SDS011;1272;53.332;9.860;2023-01-19T16:26:34;11.97;;;9.70;;
2522;SDS011;1272;53.332;9.860;2023-01-19T16:29:04;15.73;;;9.97;;
2522;SDS011;1272;53.332;9.860;2023-01-19T16:31:32;9.50;;;8.10;;
2522;SDS011;1272;53.332;9.860;2023-01-19T16:33:58;12.73;;;8.30;;
2522;SDS011;1272;53.332;9.860;2023-01-19T16:36:26;10.40;;;8.17;;
2522;SDS011;1272;53.332;9.860;2023-01-19T16:38:53;12.83;;;8.40;;